Flight Track Log - Related Links

Times and Time Zones

All times are in EDT time to prevent confusion due to time zone crossing. See the KAL1228 flight status page for this flight to view local times or setup timezone preferences in your user account.

Time Position Orientation Groundspeed Altitude Reporting Facility
EDT Latitude Longitude Course Direction KTS MPH feet Rate Location/Type
Thu 02:35:18 AM 36.7070 127.0450 37° Northeast 403 464 21,100  Level FlightAware ADS-B
Thu 02:36:13 AM 36.7850 127.1180 37° Northeast 404 465 20,600 -982 Descending FlightAware ADS-B
Thu 02:37:08 AM 36.8700 127.1980 37° Northeast 389 448 19,300 -1,260 Descending FlightAware ADS-B
Thu 02:37:53 AM 36.9350 127.2600 37° Northeast 384 442 18,500 -1,341 Descending FlightAware ADS-B
Thu 02:38:33 AM 36.9930 127.3140 37° Northeast 370 426 17,400 -1,650 Descending FlightAware ADS-B
Thu 02:39:13 AM 37.0490 127.3670 37° Northeast 369 425 16,300 -1,482 Descending FlightAware ADS-B
Thu 02:39:58 AM 37.1090 127.4230 37° Northeast 360 414 15,300 -1,200 Descending FlightAware ADS-B
Thu 02:40:38 AM 37.1610 127.4720 37° Northeast 343 395 14,600 -1,015 Descending FlightAware ADS-B
Thu 02:41:03 AM 37.1970 127.4920 24° Northeast 327 376 14,200 -533 Descending FlightAware ADS-B
Thu 02:42:08 AM 37.2570 127.4250 318° Northwest 295 339 13,800 -626 Descending FlightAware ADS-B
Thu 02:42:58 AM 37.2710 127.3440 282° West 284 327 13,000 -1,011 Descending FlightAware ADS-B
Thu 02:43:43 AM 37.2850 127.2690 283° West 289 333 12,200 -1,059 Descending FlightAware ADS-B
Thu 02:44:23 AM 37.2970 127.2020 283° West 290 334 11,500 -975 Descending FlightAware ADS-B
Thu 02:45:03 AM 37.3080 127.1380 282° West 285 328 10,900 -847 Descending FlightAware ADS-B
Thu 02:45:48 AM 37.3350 127.0730 298° West 282 325 10,300 -667 Descending FlightAware ADS-B
Thu 02:46:33 AM 37.3680 127.0130 305° West 282 325 9,900 -343 Descending FlightAware ADS-B
Thu 02:46:58 AM 37.3870 126.9780 304° West 281 323 9,900  Level FlightAware ADS-B
Thu 02:47:28 AM 37.4070 126.9410 304° West 281 323 9,900  Level FlightAware ADS-B
Thu 02:47:38 AM 37.4130 126.9270 298° West 284 327 9,900 -900 Level FlightAware ADS-B
Thu 02:48:08 AM 37.4320 126.8720 294° West 283 326 9,300 -1,000 Descending FlightAware ADS-B
Thu 02:48:38 AM 37.4450 126.8300 291° West 282 325 8,900 -1,050 Descending FlightAware ADS-B
Thu 02:49:28 AM 37.4700 126.7520 292° West 275 316 7,900 -1,125 Descending FlightAware ADS-B
Thu 02:49:58 AM 37.4840 126.7080 292° West 278 320 7,400 -1,091 Descending FlightAware ADS-B
Thu 02:50:23 AM 37.5070 126.6750 311° West 270 311 6,900 -646 Descending FlightAware ADS-B
Thu 02:51:03 AM 37.5370 126.6360 314° West 260 299 6,700 -300 Descending FlightAware ADS-B
Thu 02:53:00 AM 37.5583 126.7906 80° East  Level Estimated
Thu 02:54:00 AM 37.5583 126.7906 288° West  Level Estimated
Thu 02:55:00 AM 37.5583 126.7906 288° West  Level Estimated
Thu 02:56:00 AM 37.5583 126.7906 288° West  Level Estimated
Thu 02:57:00 AM 37.5583 126.7906 288° West  Level Estimated
Thu 02:58:00 AM 37.5583 126.7906 288° West  Level Estimated
Thu 02:59:00 AM 37.5583 126.7906 288° West  Level Estimated
Thu 03:00:00 AM 37.5583 126.7906 288° West  Level Estimated
Thu 03:01:00 AM 37.5583 126.7906 288° West  Level Estimated
Thu 03:02:00 AM 37.5583 126.7906 288° West  Level Estimated

Login

Don't have an account? Register now (free) for customized features, flight alerts, and more!